Time;durP1;ratioP1;P1;durP2;ratioP2;P2;SDS_P1;SDS_P2;PMS_P1;PMS_P2;Temp;Humidity;BMP_temperature;BMP_pressure;BME280_temperature;BME280_humidity;BME280_pressure;Samples;Min_cycle;Max_cycle;Signal;HPM_P1;HPM_P2
2022/05/14 00:01:56;;;;;;;3.45;1.10;;;;;;;23.17;34.15;98200.22;5106923;28;20078;-66
2022/05/14 00:04:22;;;;;;;4.05;1.35;;;;;;;23.16;33.79;98203.97;5107035;28;20050;-66
2022/05/14 00:06:47;;;;;;;1.70;0.82;;;;;;;23.13;33.55;98190.94;5107142;28;20062;-65
2022/05/14 00:09:13;;;;;;;1.55;0.73;;;;;;;23.12;34.04;98209.03;5106604;28;20091;-66
2022/05/14 00:14:22;;;;;;;4.18;0.90;;;;;;;23.07;34.00;98200.81;5106926;28;20084;-65
2022/05/14 00:16:50;;;;;;;5.85;1.10;;;;;;;23.05;34.00;98197.50;5097678;28;20186;-66
2022/05/14 00:19:15;;;;;;;3.13;1.00;;;;;;;23.03;33.75;98202.31;5069138;28;20158;-66
2022/05/14 00:21:41;;;;;;;2.17;0.88;;;;;;;23.04;34.06;98205.84;5092634;28;20034;-66
2022/05/14 00:24:07;;;;;;;2.55;0.90;;;;;;;23.06;34.38;98201.84;5107230;28;20144;-66
2022/05/14 00:26:38;;;;;;;3.75;1.10;;;;;;;23.06;33.96;98204.56;5106715;28;20035;-66
2022/05/14 00:29:06;;;;;;;1.73;0.85;;;;;;;23.06;33.87;98199.16;5106925;28;20020;-66
2022/05/14 00:31:32;;;;;;;5.70;1.20;;;;;;;23.06;34.12;98209.94;5106865;28;20107;-66
2022/05/14 00:33:58;;;;;;;3.00;1.20;;;;;;;23.06;34.30;98199.16;5106480;28;20028;-66
2022/05/14 00:36:23;;;;;;;4.65;0.85;;;;;;;23.08;34.39;98205.16;5106726;28;20048;-66
2022/05/14 00:38:49;;;;;;;2.97;1.05;;;;;;;23.01;33.98;98190.97;5107271;28;20133;-66
2022/05/14 00:41:15;;;;;;;2.50;1.30;;;;;;;22.99;34.21;98195.78;5111008;28;20028;-66
2022/05/14 00:43:56;;;;;;;2.97;0.75;;;;;;;22.93;34.06;98200.25;5111404;28;20024;-66
2022/05/14 00:47:00;;;;;;;5.93;1.08;;;;;;;22.90;34.01;98198.00;5110979;28;20039;-66
2022/05/14 00:49:29;;;;;;;4.18;1.13;;;;;;;22.81;34.27;98194.84;5110919;28;20028;-66
2022/05/14 00:51:55;;;;;;;3.80;0.98;;;;;;;22.81;34.30;98197.53;5110219;28;20027;-66
2022/05/14 00:54:28;;;;;;;2.83;1.25;;;;;;;22.82;33.95;98193.78;5110771;28;20079;-66
2022/05/14 00:57:00;;;;;;;1.50;0.88;;;;;;;22.81;33.95;98189.44;5110587;28;20245;-67
2022/05/14 00:59:26;;;;;;;5.00;1.05;;;;;;;22.81;34.17;98186.75;5110683;28;20187;-66
2022/05/14 01:01:54;;;;;;;3.88;0.70;;;;;;;22.84;34.33;98188.13;5110296;28;20066;-66
2022/05/14 01:04:21;;;;;;;2.80;1.10;;;;;;;22.82;34.36;98184.84;5110648;28;20081;-67
2022/05/14 01:06:56;;;;;;;2.10;1.05;;;;;;;22.83;34.11;98184.63;5109488;28;20047;-66
2022/05/14 01:09:22;;;;;;;3.72;0.95;;;;;;;22.82;34.16;98188.38;5110558;28;20051;-66
2022/05/14 01:11:50;;;;;;;1.40;0.70;;;;;;;22.82;33.99;98192.94;5110539;28;20095;-66
2022/05/14 01:14:15;;;;;;;2.05;0.82;;;;;;;22.82;33.99;98188.38;5110537;28;20067;-66
2022/05/14 01:16:41;;;;;;;3.53;1.05;;;;;;;22.84;34.25;98186.28;5110319;28;20144;-66
2022/05/14 01:19:07;;;;;;;1.92;0.98;;;;;;;22.85;34.36;98189.78;5110108;28;20237;-66
2022/05/14 01:21:50;;;;;;;1.65;0.73;;;;;;;22.84;34.52;98186.28;5110519;28;20091;-67
2022/05/14 01:27:27;;;;;;;2.38;0.73;;;;;;;22.77;34.32;98176.66;5109617;28;20023;-67
2022/05/14 01:29:52;;;;;;;2.33;0.90;;;;;;;22.76;34.26;98183.09;5109920;28;20032;-67
2022/05/14 01:32:18;;;;;;;2.85;1.05;;;;;;;22.76;33.91;98189.31;5110053;28;20039;-66
2022/05/14 01:34:44;;;;;;;2.13;0.73;;;;;;;22.76;34.11;98175.81;5110088;28;20048;-66
2022/05/14 01:37:10;;;;;;;1.50;0.70;;;;;;;22.77;34.44;98184.75;5109617;28;20035;-67
2022/05/14 01:39:36;;;;;;;3.88;0.70;;;;;;;22.77;34.70;98176.66;5109406;28;20032;-67
2022/05/14 01:42:02;;;;;;;3.75;1.00;;;;;;;22.78;34.37;98184.50;5109496;28;20050;-67
2022/05/14 01:44:28;;;;;;;1.70;0.90;;;;;;;22.77;34.37;98176.66;5110124;28;20215;-67
2022/05/14 01:46:54;;;;;;;1.40;0.82;;;;;;;22.75;34.31;98173.38;5109780;28;20083;-67
2022/05/14 01:49:20;;;;;;;2.10;0.88;;;;;;;22.78;34.39;98181.81;5109761;28;20020;-67
2022/05/14 01:51:46;;;;;;;3.53;1.15;;;;;;;22.78;34.16;98168.31;5109649;28;20249;-67
2022/05/14 01:54:11;;;;;;;3.33;0.80;;;;;;;22.80;34.21;98190.50;5109611;28;20051;-67
2022/05/14 01:56:37;;;;;;;2.45;0.90;;;;;;;22.83;33.61;98191.88;5091471;28;20040;-67
2022/05/14 01:59:03;;;;;;;1.50;0.70;;;;;;;22.80;34.06;98182.41;5109414;28;20032;-67
2022/05/14 02:01:31;;;;;;;1.30;0.70;;;;;;;22.82;34.22;98183.00;5109457;28;20023;-67
2022/05/14 02:04:02;;;;;;;2.13;0.95;;;;;;;22.82;34.09;98187.56;5109515;28;20044;-67
2022/05/14 02:06:29;;;;;;;1.77;0.68;;;;;;;22.82;33.97;98185.69;5109646;28;20083;-67
2022/05/14 02:08:55;;;;;;;2.15;0.45;;;;;;;22.83;33.83;98187.34;5109191;28;20158;-67
2022/05/14 02:11:21;;;;;;;1.55;0.73;;;;;;;22.83;33.91;98191.88;5109388;28;20043;-67
2022/05/14 02:13:48;;;;;;;3.88;0.85;;;;;;;22.84;33.66;98196.22;5109405;28;20161;-67
2022/05/14 02:16:13;;;;;;;5.07;1.10;;;;;;;22.82;33.63;98193.78;5109211;28;20274;-67
2022/05/14 02:18:40;;;;;;;3.30;1.00;;;;;;;22.82;33.64;98193.78;5108380;28;20051;-67
2022/05/14 02:21:06;;;;;;;2.95;1.65;;;;;;;22.81;33.70;98186.75;5109177;28;20066;-67
2022/05/14 02:23:33;;;;;;;3.60;0.80;;;;;;;22.81;33.64;98188.59;5109084;28;20044;-67
2022/05/14 02:25:58;;;;;;;2.67;1.00;;;;;;;22.84;33.33;98193.53;5109272;28;20129;-67
2022/05/14 02:28:25;;;;;;;2.63;0.88;;;;;;;22.82;33.15;98193.78;5108324;28;20044;-67
2022/05/14 02:30:50;;;;;;;3.10;1.13;;;;;;;22.83;33.09;98192.72;5108997;28;20236;-67
2022/05/14 02:33:16;;;;;;;4.20;0.85;;;;;;;22.82;32.64;98187.56;5108920;28;20032;-67
2022/05/14 02:35:43;;;;;;;3.03;0.70;;;;;;;22.85;32.51;98198.72;5109170;28;20039;-67
2022/05/14 02:38:10;;;;;;;4.72;1.33;;;;;;;22.85;32.65;98195.19;5108509;28;20096;-67
2022/05/14 02:40:35;;;;;;;1.42;0.65;;;;;;;22.88;32.78;98200.09;5092016;28;20238;-67
2022/05/14 02:43:01;;;;;;;2.88;0.80;;;;;;;22.88;32.73;98201.97;5088668;28;20097;-67
2022/05/14 02:45:26;;;;;;;2.75;1.20;;;;;;;22.85;32.87;98198.72;5088496;28;20160;-67
2022/05/14 02:47:52;;;;;;;1.77;0.70;;;;;;;22.85;32.69;98193.31;5107794;28;20054;-67
2022/05/14 02:50:18;;;;;;;1.92;0.82;;;;;;;22.86;32.35;98199.53;5108884;28;20252;-67
2022/05/14 02:52:44;;;;;;;1.98;0.80;;;;;;;22.87;32.33;98190.38;5108316;28;20046;-67
2022/05/14 02:55:11;;;;;;;6.32;1.20;;;;;;;22.89;32.51;98198.22;5108722;28;20052;-67
2022/05/14 02:57:36;;;;;;;3.53;0.55;;;;;;;22.92;32.52;98197.75;5108020;28;20048;-67
2022/05/14 03:00:08;;;;;;;1.85;0.55;;;;;;;22.94;32.83;98204.53;5108677;28;20055;-67
2022/05/14 03:02:34;;;;;;;1.50;0.50;;;;;;;22.97;32.60;98201.38;5107770;28;20027;-67
2022/05/14 03:05:01;;;;;;;4.15;0.55;;;;;;;23.00;32.42;98210.91;5108312;28;20030;-66
2022/05/14 03:07:27;;;;;;;3.05;0.70;;;;;;;23.01;31.96;98207.97;5107882;28;20051;-66
2022/05/14 03:09:52;;;;;;;2.67;0.80;;;;;;;23.04;32.43;98192.38;5108039;28;20036;-66
2022/05/14 03:12:21;;;;;;;1.23;0.65;;;;;;;23.10;32.45;98204.91;5108129;28;20087;-66
2022/05/14 03:14:49;;;;;;;1.33;0.63;;;;;;;23.16;32.06;98202.06;5108424;28;20024;-66
2022/05/14 03:17:15;;;;;;;3.42;0.80;;;;;;;23.24;32.54;98194.72;5099926;28;20031;-66
2022/05/14 03:19:41;;;;;;;2.05;0.70;;;;;;;23.33;32.64;98196.00;5107805;28;20027;-66
2022/05/14 03:22:07;;;;;;;1.35;0.60;;;;;;;23.43;32.70;98198.94;5108219;28;20044;-66
2022/05/14 03:24:36;;;;;;;1.98;0.63;;;;;;;23.47;32.31;98201.97;5108305;28;20135;-66
2022/05/14 03:27:02;;;;;;;2.10;0.60;;;;;;;23.53;32.31;98202.88;5107068;28;20020;-66
2022/05/14 03:29:27;;;;;;;1.77;0.70;;;;;;;23.53;32.05;98208.28;5107916;28;20043;-66
2022/05/14 03:31:56;;;;;;;2.20;0.60;;;;;;;23.54;32.23;98220.72;5107628;28;20141;-67
2022/05/14 03:34:21;;;;;;;2.63;0.85;;;;;;;23.54;31.75;98215.34;5107798;28;20241;-66
2022/05/14 03:36:47;;;;;;;2.28;0.60;;;;;;;23.56;31.79;98218.63;5107734;28;20089;-66
2022/05/14 03:39:12;;;;;;;1.67;0.55;;;;;;;23.58;31.74;98220.00;5090940;28;20042;-66
2022/05/14 03:41:38;;;;;;;2.45;0.75;;;;;;;23.62;31.87;98223.03;5107520;28;20020;-66
2022/05/14 03:44:04;;;;;;;0.77;0.30;;;;;;;23.59;31.79;98213.56;5107818;28;20048;-66
2022/05/14 03:46:29;;;;;;;1.02;0.50;;;;;;;23.60;31.71;98219.78;5107424;28;20028;-66
2022/05/14 03:48:54;;;;;;;1.33;0.75;;;;;;;23.59;31.79;98216.25;5107264;28;20024;-66
2022/05/14 03:51:20;;;;;;;2.80;0.98;;;;;;;23.61;31.67;98218.69;5107426;28;20031;-66
2022/05/14 03:53:47;;;;;;;2.75;0.50;;;;;;;23.64;31.84;98214.72;5107534;28;20047;-67
2022/05/14 03:56:13;;;;;;;3.75;0.68;;;;;;;23.65;31.45;98217.19;5107418;28;20136;-66
2022/05/14 03:58:38;;;;;;;1.77;0.50;;;;;;;23.66;31.43;98210.72;5106920;28;20146;-66
2022/05/14 04:01:05;;;;;;;3.35;0.50;;;;;;;23.70;31.49;98214.59;5107269;28;20028;-67
2022/05/14 04:03:33;;;;;;;2.40;0.70;;;;;;;23.73;31.33;98221.38;5107400;28;20145;-67
2022/05/14 04:06:00;;;;;;;5.15;0.57;;;;;;;23.72;31.37;98211.63;5098655;28;20249;-67
2022/05/14 04:08:26;;;;;;;1.05;0.38;;;;;;;23.71;31.46;98204.59;5086842;28;20086;-67
2022/05/14 04:10:51;;;;;;;2.45;0.68;;;;;;;23.76;31.71;98216.31;5086914;28;20032;-67
2022/05/14 04:13:17;;;;;;;5.10;0.80;;;;;;;23.77;30.97;98207.16;5097559;28;20047;-67
2022/05/14 04:15:42;;;;;;;1.73;0.40;;;;;;;23.81;31.34;98209.38;5107068;28;20237;-67
2022/05/14 04:18:09;;;;;;;1.90;0.60;;;;;;;23.84;31.14;98211.59;5106999;28;20032;-67
2022/05/14 04:20:35;;;;;;;1.98;0.70;;;;;;;23.87;31.31;98209.25;5106953;28;20028;-67
2022/05/14 04:23:02;;;;;;;0.80;0.40;;;;;;;23.91;31.55;98201.47;5106667;28;20153;-67
2022/05/14 04:25:28;;;;;;;0.93;0.40;;;;;;;23.99;31.39;98208.41;5106902;28;20037;-67
2022/05/14 04:27:54;;;;;;;2.17;0.43;;;;;;;24.06;31.09;98204.50;5106749;28;20048;-68
2022/05/14 04:30:19;;;;;;;1.77;0.60;;;;;;;24.16;30.87;98203.06;5106830;28;20026;-67
2022/05/14 04:32:46;;;;;;;2.83;0.50;;;;;;;24.21;30.77;98197.72;5106387;28;20016;-67
2022/05/14 04:35:14;;;;;;;1.92;0.65;;;;;;;24.32;30.84;98209.53;5106816;28;20092;-67
2022/05/14 04:37:40;;;;;;;2.63;0.77;;;;;;;24.42;30.65;98198.09;5106705;28;20050;-67
2022/05/14 04:40:07;;;;;;;0.82;0.57;;;;;;;24.50;30.70;98200.38;5106691;28;20032;-67
2022/05/14 04:42:33;;;;;;;1.70;0.50;;;;;;;24.56;30.54;98196.72;5106169;28;20012;-68
2022/05/14 04:44:58;;;;;;;3.35;0.57;;;;;;;24.63;30.37;98199.25;5106800;28;20100;-67
2022/05/14 04:47:24;;;;;;;1.67;0.60;;;;;;;24.65;30.09;98207.94;5106692;28;20075;-67
2022/05/14 04:49:50;;;;;;;0.88;0.47;;;;;;;24.65;30.13;98207.94;5107067;28;20039;-67
2022/05/14 04:52:16;;;;;;;2.05;0.60;;;;;;;24.66;30.11;98198.75;5106584;28;20024;-67
2022/05/14 04:54:42;;;;;;;2.13;0.50;;;;;;;24.65;29.96;98200.63;5102653;28;20295;-67
2022/05/14 04:57:08;;;;;;;1.48;0.32;;;;;;;24.71;29.78;98211.56;5087505;28;20048;-67
2022/05/14 04:59:35;;;;;;;1.00;0.52;;;;;;;24.75;30.18;98210.03;5106825;28;20235;-67
2022/05/14 05:04:45;;;;;;;1.02;0.63;;;;;;;24.93;29.77;98207.03;5106675;28;20077;-67
2022/05/14 05:07:11;;;;;;;2.63;0.38;;;;;;;25.04;29.94;98199.09;5106861;28;20028;-67
2022/05/14 05:09:37;;;;;;;1.70;0.57;;;;;;;25.11;30.05;98205.13;5106494;28;20221;-67
2022/05/14 05:12:03;;;;;;;1.63;0.57;;;;;;;25.12;30.06;98202.19;5106035;28;20063;-67
2022/05/14 05:14:29;;;;;;;3.90;0.50;;;;;;;25.13;29.74;98193.00;5106770;28;20035;-67
2022/05/14 05:16:54;;;;;;;3.10;0.65;;;;;;;25.18;30.14;98207.66;5105884;28;20024;-68
2022/05/14 05:19:20;;;;;;;1.63;0.55;;;;;;;25.18;29.59;98192.25;5105993;28;20183;-66
2022/05/14 05:21:46;;;;;;;3.03;0.50;;;;;;;25.23;29.35;98205.03;5106611;28;20028;-66
2022/05/14 05:24:12;;;;;;;3.72;0.50;;;;;;;25.26;29.77;98202.66;5106516;28;20066;-66
2022/05/14 05:26:38;;;;;;;1.30;0.30;;;;;;;25.32;29.44;98194.59;5108441;28;20028;-67
2022/05/14 05:29:05;;;;;;;2.10;0.40;;;;;;;25.37;29.66;98203.59;5092088;28;20118;-66
2022/05/14 05:31:32;;;;;;;1.27;0.60;;;;;;;25.40;29.24;98197.69;5109837;28;20059;-66
2022/05/14 05:33:59;;;;;;;1.02;0.63;;;;;;;25.47;29.19;98189.41;5110076;28;20038;-67
2022/05/14 05:36:24;;;;;;;1.67;0.55;;;;;;;25.53;29.41;98199.22;5110022;28;20279;-66
2022/05/14 05:38:54;;;;;;;3.47;0.57;;;;;;;25.57;29.22;98197.66;5110002;28;20106;-66
2022/05/14 05:41:20;;;;;;;1.58;0.40;;;;;;;25.58;29.31;98188.47;5109449;28;20068;-66
2022/05/14 05:43:47;;;;;;;1.23;0.60;;;;;;;25.59;29.18;98194.69;5110096;28;20032;-66
2022/05/14 05:46:14;;;;;;;1.42;0.50;;;;;;;25.61;29.28;98189.84;5109822;28;20043;-66
2022/05/14 05:48:41;;;;;;;1.77;0.40;;;;;;;25.65;29.03;98196.41;5108728;28;20152;-66
2022/05/14 05:51:07;;;;;;;1.08;0.45;;;;;;;25.70;28.95;98191.06;5109579;28;20038;-66
2022/05/14 05:59:01;;;;;;;2.25;0.70;;;;;;;25.69;29.20;98183.16;5109277;28;20169;-66
2022/05/14 06:01:27;;;;;;;1.30;0.40;;;;;;;25.69;29.26;98191.28;5109382;28;20032;-66
2022/05/14 06:03:52;;;;;;;1.77;0.80;;;;;;;25.64;29.01;98192.03;5109459;28;20241;-67
2022/05/14 06:06:21;;;;;;;2.67;0.47;;;;;;;25.62;28.98;98188.78;5109490;28;20028;-66
2022/05/14 06:08:50;;;;;;;1.60;0.28;;;;;;;25.56;29.07;98198.72;5108791;28;20240;-67
2022/05/14 06:11:16;;;;;;;1.73;0.43;;;;;;;25.48;28.88;98199.19;5109085;28;20032;-67
2022/05/14 06:13:43;;;;;;;0.80;0.40;;;;;;;25.45;29.27;98202.38;5109328;28;20040;-67
2022/05/14 06:16:09;;;;;;;2.15;0.70;;;;;;;25.42;28.95;98201.00;5106503;28;20028;-66
2022/05/14 06:18:35;;;;;;;1.80;0.93;;;;;;;25.42;29.00;98190.19;5106543;28;20232;-68
2022/05/14 06:21:01;;;;;;;0.95;0.40;;;;;;;25.40;29.16;98186.88;5109009;28;20036;-67
2022/05/14 06:23:26;;;;;;;1.98;0.70;;;;;;;25.36;29.18;98184.91;5108891;28;20216;-68
2022/05/14 06:25:52;;;;;;;2.95;0.50;;;;;;;25.34;28.90;98192.47;5109116;28;20044;-68
2022/05/14 06:28:17;;;;;;;2.88;0.50;;;;;;;25.31;29.12;98182.13;5108916;28;20028;-68
2022/05/14 06:30:43;;;;;;;5.00;0.82;;;;;;;25.32;29.05;98189.19;5108684;28;20036;-65
2022/05/14 06:33:10;;;;;;;2.08;0.50;;;;;;;25.33;29.05;98178.09;5109058;28;20057;-68
2022/05/14 06:35:37;;;;;;;0.88;0.40;;;;;;;25.34;28.99;98178.94;5108821;28;20024;-68
2022/05/14 06:38:04;;;;;;;3.97;0.60;;;;;;;25.33;28.82;98185.41;5107234;28;20062;-68
2022/05/14 06:40:30;;;;;;;4.55;0.47;;;;;;;25.31;28.87;98177.53;5108720;28;20040;-68
2022/05/14 06:42:56;;;;;;;1.88;0.60;;;;;;;25.32;28.71;98172.94;5108540;28;20103;-68
2022/05/14 06:45:22;;;;;;;2.90;0.63;;;;;;;25.34;28.62;98179.72;5108502;28;20050;-68
2022/05/14 06:47:47;;;;;;;1.05;0.55;;;;;;;25.36;28.92;98180.31;5108155;28;20075;-67
2022/05/14 06:50:13;;;;;;;2.75;0.60;;;;;;;25.34;28.96;98182.44;5108577;28;20036;-67
2022/05/14 06:52:41;;;;;;;1.40;0.45;;;;;;;25.28;28.72;98172.63;5108472;28;20100;-68
2022/05/14 06:55:09;;;;;;;3.60;0.60;;;;;;;25.23;28.73;98159.03;5108819;28;20125;-67
2022/05/14 06:57:35;;;;;;;4.03;0.60;;;;;;;25.21;28.92;98159.28;5107785;28;20048;-68
2022/05/14 07:00:01;;;;;;;1.60;0.70;;;;;;;25.21;28.91;98170.13;5108396;28;20040;-67
2022/05/14 07:02:28;;;;;;;3.22;0.43;;;;;;;25.22;28.75;98162.78;5108291;28;20138;-67
2022/05/14 07:07:38;;;;;;;0.68;0.25;;;;;;;25.22;28.56;98158.19;5090855;28;20023;-67
2022/05/14 07:10:04;;;;;;;3.13;0.75;;;;;;;25.18;28.44;98143.53;5107520;28;20040;-67
2022/05/14 07:12:32;;;;;;;4.13;0.50;;;;;;;25.14;28.09;98155.94;5108042;28;20043;-66
2022/05/14 07:14:58;;;;;;;1.08;0.52;;;;;;;25.08;28.50;98162.31;5108442;28;20052;-66
2022/05/14 07:17:25;;;;;;;1.55;0.50;;;;;;;25.02;28.27;98147.91;5108063;28;20176;-66
2022/05/14 07:19:52;;;;;;;3.08;0.60;;;;;;;25.02;28.15;98157.94;5107424;28;20107;-66
2022/05/14 07:22:18;;;;;;;1.15;0.40;;;;;;;25.02;28.70;98164.16;5107527;28;20221;-66
2022/05/14 07:24:45;;;;;;;0.73;0.32;;;;;;;25.01;28.34;98162.50;5107974;28;20048;-66
2022/05/14 07:27:11;;;;;;;1.02;0.35;;;;;;;24.98;28.01;98157.63;5107705;28;20069;-66
2022/05/14 07:29:40;;;;;;;5.28;1.10;;;;;;;24.97;28.12;98156.78;5107663;28;20031;-66
2022/05/14 07:32:10;;;;;;;1.65;0.50;;;;;;;24.97;27.79;98154.06;5107733;28;20233;-67
2022/05/14 07:34:37;;;;;;;1.83;0.77;;;;;;;24.96;27.89;98149.72;5089914;28;20032;-67
2022/05/14 07:37:13;;;;;;;1.33;0.60;;;;;;;24.96;28.08;98152.44;5106881;28;20078;-67
2022/05/14 07:39:45;;;;;;;1.80;0.63;;;;;;;24.97;27.78;98161.38;5107471;28;20056;-67
2022/05/14 07:42:15;;;;;;;0.65;0.45;;;;;;;24.96;28.17;98148.94;5107600;28;20213;-67
2022/05/14 07:44:44;;;;;;;2.63;0.80;;;;;;;24.97;27.97;98151.38;5107584;28;20399;-67
2022/05/14 07:47:10;;;;;;;2.20;0.80;;;;;;;24.99;28.21;98154.66;5106949;28;20032;-67
2022/05/14 07:49:36;;;;;;;3.33;0.73;;;;;;;25.02;28.19;98157.94;5107426;28;20035;-66
2022/05/14 07:52:02;;;;;;;3.15;0.55;;;;;;;25.01;28.05;98138.16;5106977;28;20032;-68
2022/05/14 07:54:28;;;;;;;1.52;0.45;;;;;;;25.01;27.95;98140.06;5107113;28;20019;-66
2022/05/14 07:56:55;;;;;;;1.45;0.52;;;;;;;24.99;27.69;98157.34;5088851;28;20048;-67
2022/05/14 07:59:21;;;;;;;0.88;0.50;;;;;;;24.99;27.94;98156.56;5107315;28;20032;-67
2022/05/14 08:01:47;;;;;;;0.30;0.30;;;;;;;24.99;27.90;98143.81;5106756;28;20030;-67
2022/05/14 08:04:13;;;;;;;2.80;0.60;;;;;;;24.99;27.52;98149.25;5107103;28;20043;-67
2022/05/14 08:06:39;;;;;;;1.30;0.47;;;;;;;24.99;28.01;98146.53;5107160;28;20063;-67
2022/05/14 08:09:05;;;;;;;1.40;0.35;;;;;;;25.02;27.94;98142.50;5107046;28;20039;-67
2022/05/14 08:11:32;;;;;;;1.42;0.50;;;;;;;25.05;27.81;98143.91;5107035;28;20028;-67
2022/05/14 08:13:59;;;;;;;2.00;0.80;;;;;;;25.02;28.03;98144.41;5107046;28;20191;-67
2022/05/14 08:16:25;;;;;;;1.92;0.73;;;;;;;25.02;27.52;98142.50;5106522;28;20024;-68
2022/05/14 08:18:50;;;;;;;1.50;0.50;;;;;;;24.98;27.75;98141.38;5107015;28;20217;-67
2022/05/14 08:26:51;;;;;;;1.83;0.45;;;;;;;24.94;27.44;98146.44;5105906;28;20080;-67
2022/05/14 08:29:17;;;;;;;3.10;0.60;;;;;;;24.91;27.75;98146.97;5106422;28;20257;-67
2022/05/14 08:31:43;;;;;;;0.68;0.35;;;;;;;24.90;27.81;98139.94;5106605;28;20066;-67
2022/05/14 08:34:08;;;;;;;4.75;0.60;;;;;;;24.87;27.73;98139.56;5106780;28;20145;-67
2022/05/14 08:36:34;;;;;;;2.20;0.55;;;;;;;24.84;27.89;98149.03;5106200;28;20035;-67
2022/05/14 08:39:00;;;;;;;1.15;0.50;;;;;;;24.79;27.60;98138.94;5106735;28;20039;-67
2022/05/14 08:41:26;;;;;;;4.45;0.60;;;;;;;24.81;27.30;98138.69;5106739;28;20150;-67
2022/05/14 08:43:59;;;;;;;2.65;0.60;;;;;;;24.79;27.46;98141.66;5106729;28;20296;-68
2022/05/14 08:46:26;;;;;;;3.05;0.60;;;;;;;24.75;27.81;98140.50;5088968;28;20034;-68
2022/05/14 08:48:56;;;;;;;1.10;0.40;;;;;;;24.75;27.84;98142.41;5106676;28;20079;-68
2022/05/14 08:51:32;;;;;;;2.15;0.50;;;;;;;24.75;27.89;98132.41;5106025;28;20035;-68
2022/05/14 08:53:59;;;;;;;0.40;0.30;;;;;;;24.74;27.79;98140.75;5106524;28;20032;-68
2022/05/14 08:56:26;;;;;;;1.30;0.60;;;;;;;24.72;27.86;98141.00;5106256;28;20071;-68
2022/05/14 08:59:21;;;;;;;1.75;0.70;;;;;;;24.72;27.79;98149.09;5106166;28;20119;-68
2022/05/14 09:01:48;;;;;;;1.08;0.45;;;;;;;24.68;27.82;98150.66;5110564;28;20172;-67
2022/05/14 09:04:20;;;;;;;3.20;0.50;;;;;;;24.65;27.76;98143.84;5110143;28;20032;-67
2022/05/14 09:06:47;;;;;;;1.77;0.50;;;;;;;24.61;27.95;98152.69;5110713;28;20059;-67
2022/05/14 09:09:13;;;;;;;1.92;0.73;;;;;;;24.61;27.47;98164.34;5110388;28;20040;-67
2022/05/14 09:12:02;;;;;;;1.38;0.43;;;;;;;24.58;27.82;98145.06;5110116;28;20024;-67
2022/05/14 09:14:35;;;;;;;1.77;0.60;;;;;;;24.55;27.87;98135.59;5110680;28;20024;-66
2022/05/14 09:17:10;;;;;;;6.60;0.57;;;;;;;24.58;27.88;98145.06;5105156;28;20161;-66
2022/05/14 09:19:40;;;;;;;2.88;0.60;;;;;;;24.59;27.63;98149.41;5110280;28;20031;-67
2022/05/14 09:22:23;;;;;;;1.65;0.57;;;;;;;24.59;27.94;98136.72;5109982;28;20036;-67
2022/05/14 09:24:56;;;;;;;1.67;0.75;;;;;;;24.58;27.88;98135.09;5109898;28;20054;-66
2022/05/14 09:27:32;;;;;;;1.20;0.80;;;;;;;24.59;27.88;98136.72;5109740;28;20044;-67
2022/05/14 09:30:03;;;;;;;2.20;0.63;;;;;;;24.57;27.83;98130.75;5109921;28;20101;-67
2022/05/14 09:32:33;;;;;;;2.78;0.90;;;;;;;24.56;27.68;98131.00;5109524;28;20051;-67
2022/05/14 09:35:09;;;;;;;5.03;0.95;;;;;;;24.54;27.93;98123.13;5110130;28;20141;-67
2022/05/14 09:37:35;;;;;;;1.75;0.82;;;;;;;24.53;28.16;98108.81;5109335;28;20044;-67
2022/05/14 09:40:05;;;;;;;5.22;0.93;;;;;;;24.54;28.15;98109.59;5109959;28;20145;-67
2022/05/14 09:42:41;;;;;;;2.72;1.00;;;;;;;24.53;28.00;98119.63;5109613;28;20047;-67
2022/05/14 09:45:21;;;;;;;2.15;0.90;;;;;;;24.51;27.57;98108.22;5109871;28;20035;-67
2022/05/14 09:47:46;;;;;;;4.60;1.00;;;;;;;24.48;27.69;98111.41;5109401;28;20125;-67
2022/05/14 09:50:18;;;;;;;2.08;0.90;;;;;;;24.45;27.54;98116.50;5109814;28;20040;-67
2022/05/14 09:52:54;;;;;;;3.78;0.95;;;;;;;24.42;28.21;98108.88;5109581;28;20630;-68
2022/05/14 09:55:22;;;;;;;3.13;1.00;;;;;;;24.42;27.97;98115.09;5109548;28;20028;-68
2022/05/14 09:57:54;;;;;;;2.25;0.93;;;;;;;24.42;28.12;98103.47;5109123;28;20051;-68
2022/05/14 10:00:33;;;;;;;4.15;1.10;;;;;;;24.40;28.33;98108.31;5109764;28;20048;-68
2022/05/14 10:03:18;;;;;;;1.58;0.70;;;;;;;24.37;27.91;98109.63;5109464;28;20281;-68
2022/05/14 10:06:19;;;;;;;1.35;0.60;;;;;;;24.32;28.09;98132.00;5103903;28;20070;-68
2022/05/14 10:08:57;;;;;;;4.18;1.17;;;;;;;24.26;27.95;98141.06;5108016;28;20137;-68
2022/05/14 10:11:44;;;;;;;2.63;0.70;;;;;;;24.24;27.81;98135.09;5107847;28;20042;-68
2022/05/14 10:14:25;;;;;;;3.42;0.70;;;;;;;24.19;27.95;98125.00;5109354;28;20119;-68
2022/05/14 10:17:09;;;;;;;3.08;0.70;;;;;;;24.15;27.91;98129.25;5109193;28;20020;-68
2022/05/14 10:20:19;;;;;;;2.25;0.60;;;;;;;24.09;28.13;98124.84;5108676;28;20047;-67
2022/05/14 10:29:10;;;;;;;3.30;0.68;;;;;;;23.98;28.57;98114.91;5093412;28;20035;-68
2022/05/14 10:31:41;;;;;;;6.70;0.95;;;;;;;23.99;28.60;98105.75;5108660;28;20299;-68
2022/05/14 10:34:17;;;;;;;1.35;0.60;;;;;;;24.01;28.34;98106.31;5109036;28;20101;-68
2022/05/14 10:37:01;;;;;;;5.45;1.05;;;;;;;24.03;28.50;98096.09;5108759;28;20020;-68
2022/05/14 10:40:03;;;;;;;3.05;1.98;;;;;;;24.02;28.56;98086.34;5108495;28;20122;-68
2022/05/14 10:42:31;;;;;;;;;;;;;;;23.93;28.66;98091.28;5109156;28;20091;-68
2022/05/14 10:45:09;;;;;;;3.70;0.88;;;;;;;23.94;28.55;98090.25;5108499;28;19908;-68
2022/05/14 10:47:39;;;;;;;1.40;0.40;;;;;;;23.94;28.48;98079.44;5108111;28;20248;-68
2022/05/14 10:50:12;;;;;;;1.17;0.77;;;;;;;23.96;29.02;98090.84;5108646;28;20156;-67
2022/05/14 10:52:39;;;;;;;1.70;0.52;;;;;;;24.00;28.59;98080.38;5108281;28;20047;-68
2022/05/14 10:55:29;;;;;;;3.55;0.70;;;;;;;24.04;28.45;98093.13;5103262;28;20085;-68
2022/05/14 10:57:59;;;;;;;2.50;0.80;;;;;;;24.08;28.61;98098.91;5093435;28;20133;-68
2022/05/14 11:00:41;;;;;;;2.22;0.73;;;;;;;24.10;28.45;98096.78;5108220;28;20241;-67
2022/05/14 11:03:21;;;;;;;4.05;0.93;;;;;;;24.10;28.50;98088.66;5107993;28;20153;-67
2022/05/14 18:03:37;;;;;;;2.75;1.02;;;;;;;22.55;29.67;98137.63;5562766;23;20400;-69
2022/05/14 18:06:05;;;;;;;4.00;0.95;;;;;;;22.54;29.88;98127.91;4869472;29;20041;-68
2022/05/14 18:08:32;;;;;;;5.90;1.05;;;;;;;22.52;29.82;98132.69;4869461;29;20123;-70
2022/05/14 18:12:25;;;;;;;3.92;1.00;;;;;;;22.53;29.92;98134.34;5175737;27;20214;-69
2022/05/14 18:14:51;;;;;;;4.13;0.80;;;;;;;22.54;29.95;98132.44;5158598;27;20493;-69
2022/05/14 18:17:16;;;;;;;1.13;0.68;;;;;;;22.54;29.91;98135.97;5163557;27;20034;-67
2022/05/14 18:19:42;;;;;;;4.50;1.20;;;;;;;22.57;30.03;98140.06;5172667;27;20030;-67
2022/05/14 18:22:08;;;;;;;2.55;1.27;;;;;;;22.59;30.18;98134.44;5172058;27;20027;-68
2022/05/14 18:24:34;;;;;;;5.60;1.20;;;;;;;22.59;30.15;98139.81;5171636;27;20062;-66
2022/05/14 18:27:03;;;;;;;2.88;1.23;;;;;;;22.60;30.15;98133.38;5160847;27;20038;-66
2022/05/14 18:29:53;;;;;;;3.85;1.80;;;;;;;22.59;30.33;98132.56;5172158;27;20034;-67
2022/05/14 18:32:27;;;;;;;2.95;1.60;;;;;;;22.59;30.43;98134.44;5170234;27;20058;-65
2022/05/14 18:34:54;;;;;;;3.92;1.38;;;;;;;22.62;30.26;98134.81;5165977;27;20045;-65
2022/05/14 18:37:24;;;;;;;2.70;1.17;;;;;;;22.61;30.40;98122.38;5171636;27;20396;-66
2022/05/14 18:39:52;;;;;;;2.92;1.17;;;;;;;22.62;30.29;98129.41;5171165;27;20125;-66
2022/05/14 18:42:19;;;;;;;3.83;1.70;;;;;;;22.63;30.55;98124.84;5151262;27;20038;-67
2022/05/14 18:44:47;;;;;;;2.33;1.20;;;;;;;22.63;30.67;98127.53;5162896;27;20033;-67
2022/05/14 18:47:13;;;;;;;4.47;1.70;;;;;;;22.63;30.89;98130.22;5162278;27;20027;-67
2022/05/14 18:49:39;;;;;;;3.72;1.38;;;;;;;22.63;31.18;98130.22;5150671;27;20142;-66
2022/05/14 18:52:06;;;;;;;3.10;1.65;;;;;;;22.63;31.37;98132.91;5151075;27;20063;-66
2022/05/14 18:54:33;;;;;;;4.15;1.70;;;;;;;22.63;31.65;98141.84;5163536;27;20030;-66
2022/05/14 18:56:59;;;;;;;4.32;1.58;;;;;;;22.62;31.90;98136.66;5171366;27;20492;-66
2022/05/14 18:59:25;;;;;;;5.80;1.30;;;;;;;22.60;32.07;98138.78;5170960;27;20037;-66
2022/05/14 19:01:50;;;;;;;3.53;1.40;;;;;;;22.58;32.16;98140.88;5171767;27;20046;-66
2022/05/14 19:07:12;;;;;;;4.30;1.27;;;;;;;22.56;32.23;98146.50;5166394;27;20087;-66
2022/05/14 19:09:38;;;;;;;3.28;1.30;;;;;;;22.55;32.44;98134.09;5170811;27;20040;-67
2022/05/14 19:12:06;;;;;;;2.65;1.23;;;;;;;22.56;32.47;98138.44;5170954;27;20042;-65